sensor_id;sensor_type;location;lat;lon;timestamp;temperature;humidity
19403;DHT22;9837;48.888;8.998;2022-11-20T06:05:21;11.50;65.30
19403;DHT22;9837;48.888;8.998;2022-11-20T06:10:12;11.40;65.40
19403;DHT22;9837;48.888;8.998;2022-11-20T06:12:38;11.50;65.10
19403;DHT22;9837;48.888;8.998;2022-11-20T06:15:05;11.50;64.90
19403;DHT22;9837;48.888;8.998;2022-11-20T06:17:31;11.50;64.70
19403;DHT22;9837;48.888;8.998;2022-11-20T06:19:56;11.50;64.60
19403;DHT22;9837;48.888;8.998;2022-11-20T06:22:22;11.50;64.70
19403;DHT22;9837;48.888;8.998;2022-11-20T06:24:48;11.60;64.60
19403;DHT22;9837;48.888;8.998;2022-11-20T06:27:13;11.50;64.50
19403;DHT22;9837;48.888;8.998;2022-11-20T06:29:39;11.50;64.70
19403;DHT22;9837;48.888;8.998;2022-11-20T06:32:04;11.60;64.70
19403;DHT22;9837;48.888;8.998;2022-11-20T06:34:30;11.60;64.60
19403;DHT22;9837;48.888;8.998;2022-11-20T06:39:22;11.60;64.30
19403;DHT22;9837;48.888;8.998;2022-11-20T06:41:47;11.60;64.50
19403;DHT22;9837;48.888;8.998;2022-11-20T06:44:13;11.60;64.50
19403;DHT22;9837;48.888;8.998;2022-11-20T06:46:38;11.60;64.30
19403;DHT22;9837;48.888;8.998;2022-11-20T06:51:30;11.50;64.50
19403;DHT22;9837;48.888;8.998;2022-11-20T06:53:56;11.40;64.70
19403;DHT22;9837;48.888;8.998;2022-11-20T06:56:21;11.40;65.00
19403;DHT22;9837;48.888;8.998;2022-11-20T06:58:47;11.40;65.10
19403;DHT22;9837;48.888;8.998;2022-11-20T07:01:14;11.40;65.20
19403;DHT22;9837;48.888;8.998;2022-11-20T07:03:40;11.40;65.50
19403;DHT22;9837;48.888;8.998;2022-11-20T07:06:06;11.30;65.60
19403;DHT22;9837;48.888;8.998;2022-11-20T07:08:32;11.30;65.90
19403;DHT22;9837;48.888;8.998;2022-11-20T07:11:04;11.40;65.70
19403;DHT22;9837;48.888;8.998;2022-11-20T07:13:30;11.50;65.50
19403;DHT22;9837;48.888;8.998;2022-11-20T07:16:03;11.60;65.30
19403;DHT22;9837;48.888;8.998;2022-11-20T07:18:29;11.50;65.60
19403;DHT22;9837;48.888;8.998;2022-11-20T07:20:54;11.50;66.00
19403;DHT22;9837;48.888;8.998;2022-11-20T07:23:20;11.50;65.90
19403;DHT22;9837;48.888;8.998;2022-11-20T07:25:46;11.50;66.00
19403;DHT22;9837;48.888;8.998;2022-11-20T07:28:11;11.60;66.70
19403;DHT22;9837;48.888;8.998;2022-11-20T07:30:37;11.50;66.10
19403;DHT22;9837;48.888;8.998;2022-11-20T07:33:03;11.50;66.30
19403;DHT22;9837;48.888;8.998;2022-11-20T07:35:28;11.50;67.00
19403;DHT22;9837;48.888;8.998;2022-11-20T07:37:54;11.60;66.80
19403;DHT22;9837;48.888;8.998;2022-11-20T07:40:20;11.60;66.80
19403;DHT22;9837;48.888;8.998;2022-11-20T07:42:53;11.70;66.80
19403;DHT22;9837;48.888;8.998;2022-11-20T07:45:21;11.60;66.90
19403;DHT22;9837;48.888;8.998;2022-11-20T07:47:47;11.60;67.20
19403;DHT22;9837;48.888;8.998;2022-11-20T07:50:13;11.60;67.10
19403;DHT22;9837;48.888;8.998;2022-11-20T07:52:39;11.60;66.40
19403;DHT22;9837;48.888;8.998;2022-11-20T07:55:06;11.70;66.40
19403;DHT22;9837;48.888;8.998;2022-11-20T07:57:32;11.60;66.40
19403;DHT22;9837;48.888;8.998;2022-11-20T07:59:57;11.60;66.40
19403;DHT22;9837;48.888;8.998;2022-11-20T08:02:23;11.60;66.30
19403;DHT22;9837;48.888;8.998;2022-11-20T08:04:49;11.60;66.30
19403;DHT22;9837;48.888;8.998;2022-11-20T08:07:14;11.50;66.90
19403;DHT22;9837;48.888;8.998;2022-11-20T08:09:41;11.40;67.00
19403;DHT22;9837;48.888;8.998;2022-11-20T08:12:06;11.50;66.60
19403;DHT22;9837;48.888;8.998;2022-11-20T08:14:51;11.50;68.10
19403;DHT22;9837;48.888;8.998;2022-11-20T08:17:16;11.60;67.20
19403;DHT22;9837;48.888;8.998;2022-11-20T08:19:42;11.60;67.20
19403;DHT22;9837;48.888;8.998;2022-11-20T08:22:07;11.60;66.70
19403;DHT22;9837;48.888;8.998;2022-11-20T08:24:33;11.60;66.50
19403;DHT22;9837;48.888;8.998;2022-11-20T08:26:59;11.50;66.00
19403;DHT22;9837;48.888;8.998;2022-11-20T08:29:28;11.60;65.90
19403;DHT22;9837;48.888;8.998;2022-11-20T08:31:54;11.50;66.50
19403;DHT22;9837;48.888;8.998;2022-11-20T08:34:19;11.50;66.40
19403;DHT22;9837;48.888;8.998;2022-11-20T08:36:45;11.40;66.70
19403;DHT22;9837;48.888;8.998;2022-11-20T08:39:12;11.60;66.10
19403;DHT22;9837;48.888;8.998;2022-11-20T08:44:05;11.60;65.70
19403;DHT22;9837;48.888;8.998;2022-11-20T08:46:37;11.60;67.20
19403;DHT22;9837;48.888;8.998;2022-11-20T08:49:05;11.50;66.40
19403;DHT22;9837;48.888;8.998;2022-11-20T08:51:31;11.40;66.70
19403;DHT22;9837;48.888;8.998;2022-11-20T08:53:57;11.40;67.40
19403;DHT22;9837;48.888;8.998;2022-11-20T08:56:22;11.50;67.60
19403;DHT22;9837;48.888;8.998;2022-11-20T08:58:50;11.50;67.50
19403;DHT22;9837;48.888;8.998;2022-11-20T09:01:17;11.60;68.60
19403;DHT22;9837;48.888;8.998;2022-11-20T09:03:42;11.40;68.30
19403;DHT22;9837;48.888;8.998;2022-11-20T09:06:08;11.20;69.00
19403;DHT22;9837;48.888;8.998;2022-11-20T09:08:34;11.10;70.70
19403;DHT22;9837;48.888;8.998;2022-11-20T09:11:02;11.20;69.10
19403;DHT22;9837;48.888;8.998;2022-11-20T09:13:28;11.30;69.20
19403;DHT22;9837;48.888;8.998;2022-11-20T09:15:59;11.50;68.40
19403;DHT22;9837;48.888;8.998;2022-11-20T09:18:25;11.50;68.10
19403;DHT22;9837;48.888;8.998;2022-11-20T09:23:18;11.50;68.10
19403;DHT22;9837;48.888;8.998;2022-11-20T09:25:43;11.60;68.00
19403;DHT22;9837;48.888;8.998;2022-11-20T09:28:09;11.50;67.90
19403;DHT22;9837;48.888;8.998;2022-11-20T09:30:35;11.50;68.10
19403;DHT22;9837;48.888;8.998;2022-11-20T09:33:00;11.50;68.20
19403;DHT22;9837;48.888;8.998;2022-11-20T09:35:26;11.60;68.00
19403;DHT22;9837;48.888;8.998;2022-11-20T09:37:52;11.60;68.10
19403;DHT22;9837;48.888;8.998;2022-11-20T09:40:21;11.50;67.90
19403;DHT22;9837;48.888;8.998;2022-11-20T09:43:23;11.50;68.60
19403;DHT22;9837;48.888;8.998;2022-11-20T09:56:41;11.10;72.00
19403;DHT22;9837;48.888;8.998;2022-11-20T09:59:17;11.00;72.30
19403;DHT22;9837;48.888;8.998;2022-11-20T10:01:43;11.00;72.30
19403;DHT22;9837;48.888;8.998;2022-11-20T10:04:12;11.10;72.20
19403;DHT22;9837;48.888;8.998;2022-11-20T10:07:11;11.20;71.30
19403;DHT22;9837;48.888;8.998;2022-11-20T10:09:40;10.90;72.10
19403;DHT22;9837;48.888;8.998;2022-11-20T10:25:53;10.40;74.70
19403;DHT22;9837;48.888;8.998;2022-11-20T10:31:14;10.50;72.80
19403;DHT22;9837;48.888;8.998;2022-11-20T10:33:45;10.30;72.60
19403;DHT22;9837;48.888;8.998;2022-11-20T10:36:23;10.00;74.60
19403;DHT22;9837;48.888;8.998;2022-11-20T10:41:39;10.10;75.50
19403;DHT22;9837;48.888;8.998;2022-11-20T10:44:29;10.30;75.90
19403;DHT22;9837;48.888;8.998;2022-11-20T10:47:15;10.80;74.40
19403;DHT22;9837;48.888;8.998;2022-11-20T11:02:55;11.50;71.30
19403;DHT22;9837;48.888;8.998;2022-11-20T11:07:57;11.40;72.10
19403;DHT22;9837;48.888;8.998;2022-11-20T11:10:51;11.20;72.00
19403;DHT22;9837;48.888;8.998;2022-11-20T11:13:28;11.10;72.70
19403;DHT22;9837;48.888;8.998;2022-11-20T11:15:54;11.10;72.50
19403;DHT22;9837;48.888;8.998;2022-11-20T11:18:31;11.20;72.80
19403;DHT22;9837;48.888;8.998;2022-11-20T11:21:00;11.50;72.30
19403;DHT22;9837;48.888;8.998;2022-11-20T11:23:34;11.80;72.20
19403;DHT22;9837;48.888;8.998;2022-11-20T11:26:03;12.00;70.00
19403;DHT22;9837;48.888;8.998;2022-11-20T11:33:31;12.00;69.50
19403;DHT22;9837;48.888;8.998;2022-11-20T11:36:22;11.90;67.30
19403;DHT22;9837;48.888;8.998;2022-11-20T11:38:51;11.60;68.60
19403;DHT22;9837;48.888;8.998;2022-11-20T11:41:25;11.70;69.00
19403;DHT22;9837;48.888;8.998;2022-11-20T11:44:00;12.10;68.30
19403;DHT22;9837;48.888;8.998;2022-11-20T11:46:55;12.40;66.00
19403;DHT22;9837;48.888;8.998;2022-11-20T11:49:23;12.60;64.50
19403;DHT22;9837;48.888;8.998;2022-11-20T11:54:27;12.90;63.40
19403;DHT22;9837;48.888;8.998;2022-11-20T11:59:29;12.70;61.70
19403;DHT22;9837;48.888;8.998;2022-11-20T12:02:02;12.80;61.80
19403;DHT22;9837;48.888;8.998;2022-11-20T12:04:57;12.70;61.40
19403;DHT22;9837;48.888;8.998;2022-11-20T12:07:39;12.40;61.90
19403;DHT22;9837;48.888;8.998;2022-11-20T12:10:15;12.70;62.20
19403;DHT22;9837;48.888;8.998;2022-11-20T12:12:51;12.70;61.10
19403;DHT22;9837;48.888;8.998;2022-11-20T12:15:30;12.60;61.40
19403;DHT22;9837;48.888;8.998;2022-11-20T12:17:56;12.50;61.50
19403;DHT22;9837;48.888;8.998;2022-11-20T12:20:26;12.60;60.70
19403;DHT22;9837;48.888;8.998;2022-11-20T12:23:07;12.60;60.70
19403;DHT22;9837;48.888;8.998;2022-11-20T12:25:36;12.70;59.90
19403;DHT22;9837;48.888;8.998;2022-11-20T12:36:21;12.80;57.80
19403;DHT22;9837;48.888;8.998;2022-11-20T12:41:56;12.80;58.60
19403;DHT22;9837;48.888;8.998;2022-11-20T13:06:57;13.60;55.30
19403;DHT22;9837;48.888;8.998;2022-11-20T13:09:23;13.60;55.90
19403;DHT22;9837;48.888;8.998;2022-11-20T13:14:55;13.70;56.30
19403;DHT22;9837;48.888;8.998;2022-11-20T13:17:37;13.70;55.70
19403;DHT22;9837;48.888;8.998;2022-11-20T13:20:06;13.70;55.60
19403;DHT22;9837;48.888;8.998;2022-11-20T13:22:48;13.40;55.10
19403;DHT22;9837;48.888;8.998;2022-11-20T13:27:52;13.40;56.70
19403;DHT22;9837;48.888;8.998;2022-11-20T13:30:21;13.40;56.40
19403;DHT22;9837;48.888;8.998;2022-11-20T13:33:04;13.50;56.30
19403;DHT22;9837;48.888;8.998;2022-11-20T13:35:34;13.40;55.70
19403;DHT22;9837;48.888;8.998;2022-11-20T13:38:03;13.40;55.70
19403;DHT22;9837;48.888;8.998;2022-11-20T13:40:31;13.40;55.70
19403;DHT22;9837;48.888;8.998;2022-11-20T13:43:07;13.50;55.80
19403;DHT22;9837;48.888;8.998;2022-11-20T13:45:35;13.50;56.30
19403;DHT22;9837;48.888;8.998;2022-11-20T13:48:19;13.10;55.30
19403;DHT22;9837;48.888;8.998;2022-11-20T13:51:15;12.40;56.00
19403;DHT22;9837;48.888;8.998;2022-11-20T13:59:58;12.00;57.60
19403;DHT22;9837;48.888;8.998;2022-11-20T14:02:27;11.90;58.10
19403;DHT22;9837;48.888;8.998;2022-11-20T14:04:58;12.00;58.10
19403;DHT22;9837;48.888;8.998;2022-11-20T14:07:36;12.00;58.00
19403;DHT22;9837;48.888;8.998;2022-11-20T14:10:24;12.00;58.60
19403;DHT22;9837;48.888;8.998;2022-11-20T14:12:51;12.00;58.10
19403;DHT22;9837;48.888;8.998;2022-11-20T14:15:31;12.00;58.30
19403;DHT22;9837;48.888;8.998;2022-11-20T14:20:29;12.30;57.90
19403;DHT22;9837;48.888;8.998;2022-11-20T14:22:56;12.40;57.60
19403;DHT22;9837;48.888;8.998;2022-11-20T14:25:25;12.60;57.60
19403;DHT22;9837;48.888;8.998;2022-11-20T14:28:00;12.40;57.30
19403;DHT22;9837;48.888;8.998;2022-11-20T14:30:47;12.50;57.80
19403;DHT22;9837;48.888;8.998;2022-11-20T14:33:14;12.50;57.70
19403;DHT22;9837;48.888;8.998;2022-11-20T14:35:47;12.50;57.00
19403;DHT22;9837;48.888;8.998;2022-11-20T14:38:15;12.60;57.60
19403;DHT22;9837;48.888;8.998;2022-11-20T14:43:23;12.80;56.40
19403;DHT22;9837;48.888;8.998;2022-11-20T14:45:57;12.80;56.30
19403;DHT22;9837;48.888;8.998;2022-11-20T14:48:46;12.70;56.30
19403;DHT22;9837;48.888;8.998;2022-11-20T14:56:38;12.70;55.70
19403;DHT22;9837;48.888;8.998;2022-11-20T14:59:04;12.50;55.80
19403;DHT22;9837;48.888;8.998;2022-11-20T15:01:31;12.60;56.10
19403;DHT22;9837;48.888;8.998;2022-11-20T15:04:11;12.60;55.90
19403;DHT22;9837;48.888;8.998;2022-11-20T15:06:37;12.60;55.70
19403;DHT22;9837;48.888;8.998;2022-11-20T15:09:04;12.50;55.50
19403;DHT22;9837;48.888;8.998;2022-11-20T15:11:35;12.50;55.50
19403;DHT22;9837;48.888;8.998;2022-11-20T15:14:06;12.50;55.30
19403;DHT22;9837;48.888;8.998;2022-11-20T15:16:32;12.40;55.40
19403;DHT22;9837;48.888;8.998;2022-11-20T15:18:58;12.40;55.40
19403;DHT22;9837;48.888;8.998;2022-11-20T15:23:54;12.40;55.40
19403;DHT22;9837;48.888;8.998;2022-11-20T15:26:24;12.40;55.40
19403;DHT22;9837;48.888;8.998;2022-11-20T15:28:51;12.20;55.30
19403;DHT22;9837;48.888;8.998;2022-11-20T15:31:22;12.30;55.40
19403;DHT22;9837;48.888;8.998;2022-11-20T15:33:49;12.30;56.00
19403;DHT22;9837;48.888;8.998;2022-11-20T15:36:15;12.30;55.80
19403;DHT22;9837;48.888;8.998;2022-11-20T15:38:41;12.30;55.50
19403;DHT22;9837;48.888;8.998;2022-11-20T15:41:07;12.40;56.10
19403;DHT22;9837;48.888;8.998;2022-11-20T15:43:33;12.40;55.50
19403;DHT22;9837;48.888;8.998;2022-11-20T15:46:04;12.40;55.40
19403;DHT22;9837;48.888;8.998;2022-11-20T15:48:42;12.20;55.60
19403;DHT22;9837;48.888;8.998;2022-11-20T15:51:23;12.10;56.20
19403;DHT22;9837;48.888;8.998;2022-11-20T16:01:16;11.70;57.00
19403;DHT22;9837;48.888;8.998;2022-11-20T16:03:43;11.50;57.10
19403;DHT22;9837;48.888;8.998;2022-11-20T16:06:09;11.50;57.70
19403;DHT22;9837;48.888;8.998;2022-11-20T16:08:35;11.50;58.00
19403;DHT22;9837;48.888;8.998;2022-11-20T16:13:26;11.50;57.70
19403;DHT22;9837;48.888;8.998;2022-11-20T16:16:23;11.40;58.10
19403;DHT22;9837;48.888;8.998;2022-11-20T16:18:49;11.00;59.60
19403;DHT22;9837;48.888;8.998;2022-11-20T16:23:42;10.90;60.50
19403;DHT22;9837;48.888;8.998;2022-11-20T16:26:17;11.00;60.30
19403;DHT22;9837;48.888;8.998;2022-11-20T16:28:44;11.20;59.80
19403;DHT22;9837;48.888;8.998;2022-11-20T16:31:12;11.20;59.60
19403;DHT22;9837;48.888;8.998;2022-11-20T16:33:39;11.10;59.80
19403;DHT22;9837;48.888;8.998;2022-11-20T16:36:12;11.00;60.10
19403;DHT22;9837;48.888;8.998;2022-11-20T16:38:38;11.10;60.20
19403;DHT22;9837;48.888;8.998;2022-11-20T16:50:51;11.30;60.90
19403;DHT22;9837;48.888;8.998;2022-11-20T16:53:18;11.30;61.60
19403;DHT22;9837;48.888;8.998;2022-11-20T16:58:10;11.00;62.10
19403;DHT22;9837;48.888;8.998;2022-11-20T17:00:37;11.10;61.80
19403;DHT22;9837;48.888;8.998;2022-11-20T17:03:04;11.20;61.70
19403;DHT22;9837;48.888;8.998;2022-11-20T17:05:31;10.90;62.20
19403;DHT22;9837;48.888;8.998;2022-11-20T17:17:42;11.20;62.40
19403;DHT22;9837;48.888;8.998;2022-11-20T17:20:08;11.30;61.90
19403;DHT22;9837;48.888;8.998;2022-11-20T18:17:09;11.30;62.50
19403;DHT22;9837;48.888;8.998;2022-11-20T18:19:41;11.40;61.80
19403;DHT22;9837;48.888;8.998;2022-11-20T18:27:05;11.00;61.30
19403;DHT22;9837;48.888;8.998;2022-11-20T18:31:58;10.60;64.20
19403;DHT22;9837;48.888;8.998;2022-11-20T18:44:30;11.00;64.60
19403;DHT22;9837;48.888;8.998;2022-11-20T18:47:17;11.30;63.60
19403;DHT22;9837;48.888;8.998;2022-11-20T18:49:44;11.40;62.90
19403;DHT22;9837;48.888;8.998;2022-11-20T18:52:25;11.60;62.80
19403;DHT22;9837;48.888;8.998;2022-11-20T18:57:20;11.60;61.10
19403;DHT22;9837;48.888;8.998;2022-11-20T19:02:14;11.40;61.80
19403;DHT22;9837;48.888;8.998;2022-11-20T19:09:34;11.00;63.90
19403;DHT22;9837;48.888;8.998;2022-11-20T19:17:04;10.70;63.50
19403;DHT22;9837;48.888;8.998;2022-11-20T19:24:46;10.60;63.80
19403;DHT22;9837;48.888;8.998;2022-11-20T19:34:32;10.70;64.00
19403;DHT22;9837;48.888;8.998;2022-11-20T19:37:03;10.80;63.60
19403;DHT22;9837;48.888;8.998;2022-11-20T19:39:38;10.50;64.00
19403;DHT22;9837;48.888;8.998;2022-11-20T19:52:15;10.10;65.30
19403;DHT22;9837;48.888;8.998;2022-11-20T20:06:58;10.20;64.10
19403;DHT22;9837;48.888;8.998;2022-11-20T21:01:17;9.60;68.20
19403;DHT22;9837;48.888;8.998;2022-11-20T21:06:10;9.50;69.60
19403;DHT22;9837;48.888;8.998;2022-11-20T21:08:36;9.60;69.90
19403;DHT22;9837;48.888;8.998;2022-11-20T21:11:11;9.70;69.80
19403;DHT22;9837;48.888;8.998;2022-11-20T21:13:38;9.70;70.20
19403;DHT22;9837;48.888;8.998;2022-11-20T21:16:04;9.50;70.40
19403;DHT22;9837;48.888;8.998;2022-11-20T21:23:45;9.70;69.80
19403;DHT22;9837;48.888;8.998;2022-11-20T21:33:51;10.10;67.90
19403;DHT22;9837;48.888;8.998;2022-11-20T21:36:21;10.10;68.00
19403;DHT22;9837;48.888;8.998;2022-11-20T21:41:14;10.20;68.20
19403;DHT22;9837;48.888;8.998;2022-11-20T21:46:11;10.20;68.00
19403;DHT22;9837;48.888;8.998;2022-11-20T21:48:39;10.10;67.50
19403;DHT22;9837;48.888;8.998;2022-11-20T21:51:08;10.30;67.50
19403;DHT22;9837;48.888;8.998;2022-11-20T22:03:24;10.10;67.30
19403;DHT22;9837;48.888;8.998;2022-11-20T22:05:58;9.90;67.50
19403;DHT22;9837;48.888;8.998;2022-11-20T22:08:33;9.70;68.40
19403;DHT22;9837;48.888;8.998;2022-11-20T22:11:07;9.50;69.70
19403;DHT22;9837;48.888;8.998;2022-11-20T22:18:52;9.30;71.20
19403;DHT22;9837;48.888;8.998;2022-11-20T22:21:30;9.50;70.90
19403;DHT22;9837;48.888;8.998;2022-11-20T22:24:02;9.90;70.00
19403;DHT22;9837;48.888;8.998;2022-11-20T22:26:30;10.10;69.00
19403;DHT22;9837;48.888;8.998;2022-11-20T22:32:07;10.10;69.80
19403;DHT22;9837;48.888;8.998;2022-11-20T22:39:59;10.30;69.00
19403;DHT22;9837;48.888;8.998;2022-11-20T22:47:21;9.70;70.10
19403;DHT22;9837;48.888;8.998;2022-11-20T22:49:46;9.90;70.90
19403;DHT22;9837;48.888;8.998;2022-11-20T22:54:38;10.30;68.70
19403;DHT22;9837;48.888;8.998;2022-11-20T22:57:04;10.30;68.30
19403;DHT22;9837;48.888;8.998;2022-11-20T22:59:30;10.30;68.20
